createdAt,value
2022-12-03T00:02:31.210Z,95.36
2022-12-03T00:07:32.811Z,94.62
2022-12-03T00:12:34.286Z,94.26
2022-12-03T00:17:35.927Z,94.90
2022-12-03T00:22:37.362Z,92.45
2022-12-03T00:27:38.812Z,93.99
2022-12-03T00:32:40.296Z,92.92
2022-12-03T00:37:42.763Z,93.23
2022-12-03T00:42:44.243Z,95.66
2022-12-03T00:47:45.692Z,94.75
2022-12-03T00:52:49.851Z,94.17
2022-12-03T00:57:51.328Z,95.75
2022-12-03T01:02:53.012Z,93.43
2022-12-03T01:07:54.575Z,92.15
2022-12-03T01:12:56.128Z,93.17
2022-12-03T01:17:57.603Z,92.65
2022-12-03T01:22:59.044Z,94.01
2022-12-03T01:28:00.696Z,93.10
2022-12-03T01:33:02.143Z,94.12
2022-12-03T01:38:03.666Z,92.63
2022-12-03T01:43:05.122Z,92.89
2022-12-03T01:48:06.760Z,91.82
2022-12-03T01:53:11.603Z,92.52
2022-12-03T01:58:14.770Z,93.10
2022-12-03T02:03:23.426Z,92.95
2022-12-03T02:08:36.302Z,91.97
2022-12-03T02:13:38.167Z,92.96
2022-12-03T02:18:39.620Z,95.57
2022-12-03T02:24:01.440Z,93.48
2022-12-03T02:29:03.259Z,93.97
2022-12-03T02:34:08.060Z,92.85
2022-12-03T02:39:09.579Z,94.11
2022-12-03T02:44:11.768Z,92.48
2022-12-03T02:49:13.287Z,92.33
2022-12-03T02:54:14.835Z,92.67
2022-12-03T02:59:16.567Z,91.92
2022-12-03T03:04:18.171Z,93.32
2022-12-03T03:09:20.658Z,93.08
2022-12-03T03:14:22.245Z,92.67
2022-12-03T03:19:25.383Z,92.80
2022-12-03T03:24:26.958Z,92.72
2022-12-03T03:29:28.446Z,93.59
2022-12-03T03:34:32.542Z,92.93
2022-12-03T03:39:34.122Z,92.71
2022-12-03T03:44:35.691Z,90.83
2022-12-03T03:49:37.282Z,93.11
2022-12-03T03:54:39.451Z,91.71
2022-12-03T03:59:41.318Z,91.42
2022-12-03T04:04:42.810Z,92.47
2022-12-03T04:09:44.999Z,91.53
2022-12-03T04:14:46.468Z,92.16
2022-12-03T04:19:47.968Z,89.36
2022-12-03T04:24:49.512Z,92.07
2022-12-03T04:29:50.936Z,93.71
2022-12-03T04:34:52.725Z,91.75
2022-12-03T04:39:54.548Z,92.16
2022-12-03T04:44:56.297Z,92.17
2022-12-03T04:49:57.915Z,90.40
2022-12-03T04:54:59.477Z,91.29
2022-12-03T05:00:00.935Z,92.69
2022-12-03T05:05:02.398Z,91.08
2022-12-03T05:10:05.402Z,92.18
2022-12-03T05:15:07.498Z,93.18
2022-12-03T05:20:09.718Z,92.92
2022-12-03T05:25:11.179Z,92.15
2022-12-03T05:30:12.991Z,91.70
2022-12-03T05:35:14.527Z,91.38
2022-12-03T05:40:16.115Z,93.40
2022-12-03T05:45:17.640Z,90.21
2022-12-03T05:50:20.548Z,89.90
2022-12-03T05:55:22.232Z,91.10
2022-12-03T06:00:27.128Z,91.82
2022-12-03T06:05:28.693Z,92.04
2022-12-03T06:10:30.184Z,93.45
2022-12-03T06:15:31.739Z,91.78
2022-12-03T06:20:33.244Z,92.51
2022-12-03T06:25:34.675Z,91.74
2022-12-03T06:30:36.337Z,91.45
2022-12-03T06:35:37.776Z,93.02
2022-12-03T06:40:39.260Z,91.15
2022-12-03T06:45:47.411Z,90.74
2022-12-03T06:50:49.376Z,91.64
2022-12-03T06:55:50.805Z,92.34
2022-12-03T07:00:52.328Z,91.53
2022-12-03T07:05:53.779Z,90.64
2022-12-03T07:10:55.348Z,91.49
2022-12-03T07:15:56.961Z,91.81
2022-12-03T07:20:58.533Z,91.79
2022-12-03T07:26:00.041Z,92.70
2022-12-03T07:31:01.623Z,92.54
2022-12-03T07:36:03.333Z,91.90
2022-12-03T07:41:22.778Z,93.44
2022-12-03T07:46:24.304Z,91.85
2022-12-03T07:51:30.624Z,92.54
2022-12-03T07:56:33.857Z,92.47
2022-12-03T08:01:35.426Z,92.33
2022-12-03T08:06:37.139Z,92.18
2022-12-03T08:11:38.732Z,92.14
2022-12-03T08:16:42.337Z,92.19
2022-12-03T08:21:43.982Z,91.53
2022-12-03T08:26:48.048Z,91.63
2022-12-03T08:31:51.475Z,93.26
2022-12-03T08:37:09.261Z,92.27
2022-12-03T08:42:16.341Z,91.91
2022-12-03T08:47:24.919Z,92.49
2022-12-03T08:52:34.336Z,91.83
2022-12-03T08:57:36.075Z,91.89
2022-12-03T09:02:37.536Z,91.33
2022-12-03T09:07:39.107Z,93.38
2022-12-03T09:12:40.890Z,91.33
2022-12-03T09:17:42.385Z,92.10
2022-12-03T09:22:43.891Z,92.42
2022-12-03T09:27:45.350Z,91.26
2022-12-03T09:32:46.818Z,90.69
2022-12-03T09:37:48.282Z,91.43
2022-12-03T09:42:51.185Z,91.74
2022-12-03T09:47:52.892Z,92.67
2022-12-03T09:52:56.883Z,90.58
2022-12-03T09:57:58.795Z,89.69
2022-12-03T10:03:04.515Z,90.12
2022-12-03T10:08:15.490Z,88.99
2022-12-03T10:13:35.254Z,90.15
2022-12-03T10:18:41.594Z,90.27
2022-12-03T10:23:43.415Z,88.78
2022-12-03T10:28:45.528Z,90.38
2022-12-03T10:33:46.996Z,88.84
2022-12-03T10:39:15.579Z,89.46
2022-12-03T10:44:22.249Z,89.99
2022-12-03T10:49:23.663Z,89.51
2022-12-03T10:54:27.771Z,90.31
2022-12-03T10:59:33.309Z,90.27
2022-12-03T11:04:36.398Z,88.93
2022-12-03T11:09:38.069Z,90.26
2022-12-03T11:14:52.192Z,90.19
2022-12-03T11:19:54.107Z,88.84
2022-12-03T11:25:26.580Z,88.49
2022-12-03T11:30:49.349Z,89.74
2022-12-03T11:36:02.930Z,89.44
2022-12-03T11:41:11.534Z,89.42
2022-12-03T11:46:13.091Z,90.62
2022-12-03T11:51:19.696Z,89.48
2022-12-03T11:56:26.623Z,90.81
2022-12-03T12:01:40.562Z,91.06
2022-12-03T12:06:43.836Z,89.47
2022-12-03T12:11:45.286Z,91.85
2022-12-03T12:16:48.240Z,90.28
2022-12-03T12:21:49.768Z,90.93
2022-12-03T12:26:51.240Z,90.96
2022-12-03T12:32:09.803Z,89.59
2022-12-03T12:37:36.469Z,90.63
2022-12-03T12:42:43.079Z,89.71
2022-12-03T12:47:49.223Z,88.64
2022-12-03T12:52:53.952Z,89.80
2022-12-03T12:58:05.681Z,89.69
2022-12-03T13:03:07.759Z,90.14
2022-12-03T13:08:37.501Z,89.62
2022-12-03T13:13:44.179Z,88.56
2022-12-03T13:18:48.712Z,89.24
2022-12-03T13:23:55.878Z,90.07
2022-12-03T13:28:58.449Z,91.07
2022-12-03T13:34:01.580Z,89.19
2022-12-03T13:39:12.757Z,89.39
2022-12-03T13:44:18.007Z,89.85
2022-12-03T13:49:21.966Z,90.48
2022-12-03T13:54:27.607Z,90.00
2022-12-03T13:59:29.091Z,90.28
2022-12-03T14:04:30.584Z,90.32
2022-12-03T14:09:32.043Z,89.64
2022-12-03T14:14:33.432Z,89.25
2022-12-03T14:19:34.935Z,90.66
2022-12-03T14:24:37.693Z,89.41
2022-12-03T14:29:39.165Z,91.00
2022-12-03T14:34:40.585Z,91.82
2022-12-03T14:39:41.998Z,90.36
2022-12-03T14:44:48.397Z,91.02
2022-12-03T14:49:50.817Z,91.87
2022-12-03T14:54:52.424Z,92.04
2022-12-03T14:59:54.302Z,93.72
2022-12-03T15:04:56.137Z,93.96
2022-12-03T15:09:58.208Z,95.67
2022-12-03T15:14:59.813Z,92.33
2022-12-03T15:20:01.264Z,92.08
2022-12-03T15:25:02.696Z,92.72
2022-12-03T15:30:05.511Z,91.33
2022-12-03T15:35:07.561Z,92.13
2022-12-03T15:40:09.765Z,92.70
2022-12-03T15:45:15.163Z,93.30
2022-12-03T15:50:18.019Z,93.25
2022-12-03T15:55:19.839Z,93.53
2022-12-03T16:00:21.592Z,92.96
2022-12-03T16:05:22.992Z,93.77
2022-12-03T16:10:24.388Z,94.75
2022-12-03T16:15:27.460Z,94.52
2022-12-03T16:20:28.996Z,95.26
2022-12-03T16:25:30.521Z,94.33
2022-12-03T16:30:32.109Z,92.97
2022-12-03T16:35:33.540Z,92.38
2022-12-03T16:40:34.931Z,92.21
2022-12-03T16:45:37.132Z,93.00
2022-12-03T16:50:38.544Z,93.66
2022-12-03T16:55:40.404Z,94.18
2022-12-03T17:00:41.833Z,93.23
2022-12-03T17:05:44.255Z,93.72
2022-12-03T17:10:45.842Z,95.03
2022-12-03T17:15:47.502Z,94.21
2022-12-03T17:20:48.994Z,94.63
2022-12-03T17:25:50.554Z,94.53
2022-12-03T17:30:52.145Z,94.70
2022-12-03T17:35:53.812Z,94.98
2022-12-03T17:40:55.245Z,95.87
2022-12-03T17:45:56.683Z,93.78
2022-12-03T17:50:58.463Z,94.52
2022-12-03T17:55:59.901Z,93.88
2022-12-03T18:01:03.130Z,95.20
2022-12-03T18:06:05.276Z,94.66
2022-12-03T18:11:06.808Z,93.79
2022-12-03T18:16:08.423Z,92.83
2022-12-03T18:21:10.030Z,94.21
2022-12-03T18:26:11.710Z,93.31
2022-12-03T18:31:20.481Z,93.06
2022-12-03T18:36:25.163Z,94.13
2022-12-03T18:41:27.405Z,92.74
2022-12-03T18:46:52.461Z,94.69
2022-12-03T18:51:54.441Z,92.28
2022-12-03T18:56:59.729Z,93.01
2022-12-03T19:02:01.360Z,93.92
2022-12-03T19:07:02.925Z,93.45
2022-12-03T19:12:12.889Z,93.83
2022-12-03T19:17:16.104Z,93.52
2022-12-03T19:22:17.571Z,94.09
2022-12-03T19:27:19.255Z,94.11
2022-12-03T19:32:20.705Z,94.38
2022-12-03T19:37:22.140Z,92.70
2022-12-03T19:42:23.568Z,93.54
2022-12-03T19:47:25.024Z,94.18
2022-12-03T19:52:26.705Z,92.67
2022-12-03T19:57:28.409Z,93.08
2022-12-03T20:02:30.112Z,94.06
2022-12-03T20:07:31.737Z,92.70
2022-12-03T20:12:33.314Z,92.78
2022-12-03T20:17:34.799Z,91.81
2022-12-03T20:22:36.296Z,93.10
2022-12-03T20:27:38.036Z,92.39
2022-12-03T20:32:45.021Z,93.21
2022-12-03T20:37:46.947Z,92.35
2022-12-03T20:42:48.476Z,94.06
2022-12-03T20:47:49.971Z,94.02
2022-12-03T20:53:16.178Z,94.32
2022-12-03T20:58:12.844Z,93.88
2022-12-03T21:03:14.395Z,93.49
2022-12-03T21:08:16.077Z,92.78
2022-12-03T21:13:18.050Z,91.67
2022-12-03T21:18:19.555Z,92.19
2022-12-03T21:23:21.078Z,93.18
2022-12-03T21:28:22.519Z,92.24
2022-12-03T21:33:24.032Z,93.17
2022-12-03T21:38:26.555Z,93.18
2022-12-03T21:43:28.508Z,92.35
2022-12-03T21:48:29.959Z,90.33
2022-12-03T21:53:32.479Z,91.55
2022-12-03T21:58:34.479Z,91.77
2022-12-03T22:03:36.040Z,91.00
2022-12-03T22:08:37.948Z,91.47
2022-12-03T22:13:40.561Z,90.85
2022-12-03T22:18:42.520Z,91.83
2022-12-03T22:23:44.911Z,90.92
2022-12-03T22:28:48.679Z,91.65
2022-12-03T22:33:50.213Z,90.61
2022-12-03T22:38:51.703Z,90.66
2022-12-03T22:43:53.210Z,90.44
2022-12-03T22:48:54.692Z,91.68
2022-12-03T22:54:01.005Z,91.50
2022-12-03T22:59:02.685Z,91.96
2022-12-03T23:04:05.275Z,93.13
2022-12-03T23:09:07.538Z,90.31
2022-12-03T23:14:09.108Z,90.43
2022-12-03T23:19:10.540Z,91.08
2022-12-03T23:24:12.228Z,91.77
2022-12-03T23:29:13.708Z,90.11
2022-12-03T23:34:15.508Z,90.79
2022-12-03T23:39:16.935Z,91.18
2022-12-03T23:44:18.520Z,89.32
2022-12-03T23:49:20.004Z,89.59
2022-12-03T23:54:21.553Z,89.49
2022-12-03T23:59:23.111Z,91.30
